Terminal Aerodrome Forecast
Issued by NWS

Home | Current Version | Previous Version | Text Only | Print | Product List | Glossary On
Versions: 1 2 3 4 5 6 7 8 9 10 11 12 13 14 15 16 17 18 19 20
000
FTUS46 KEKA 021345 AAA
TAFCEC
TAF AMD
KCEC 021345Z 0214/0312 VRB02KT 6SM -RA BR BKN008 OVC015
      TEMPO 0214/0215 3SM -RA BR
     FM021700 30009KT P6SM SCT003 BKN025 OVC050
     FM022000 31011KT P6SM SCT025
     FM030300 34009KT P6SM SKC
     FM030900 03009KT P6SM SKC=

USA.gov is the U.S. government's official web portal to all federal, state and local government web resources and services.